createdAt,value
2022-08-26T00:01:05.062Z,26.30
2022-08-26T00:03:51.678Z,25.17
2022-08-26T00:06:37.673Z,24.27
2022-08-26T00:09:28.010Z,26.10
2022-08-26T00:12:13.873Z,22.15
2022-08-26T00:15:00.703Z,26.08
2022-08-26T00:17:47.110Z,26.48
2022-08-26T00:20:34.485Z,25.08
2022-08-26T00:23:24.201Z,24.98
2022-08-26T00:26:12.191Z,24.52
2022-08-26T00:28:58.115Z,25.88
2022-08-26T00:34:31.039Z,24.33
2022-08-26T00:37:16.573Z,23.80
2022-08-26T00:40:05.064Z,26.10
2022-08-26T00:42:51.172Z,21.23
2022-08-26T00:48:33.153Z,25.08
2022-08-26T00:51:23.147Z,25.58
2022-08-26T00:54:11.171Z,24.10
2022-08-26T00:57:02.071Z,24.77
2022-08-26T00:59:52.826Z,24.75
2022-08-26T01:02:38.853Z,25.58
2022-08-26T01:05:30.167Z,24.50
2022-08-26T01:08:16.019Z,23.00
2022-08-26T01:11:02.520Z,20.52
2022-08-26T01:13:54.684Z,22.40
2022-08-26T01:16:42.263Z,21.50
2022-08-26T01:19:46.025Z,22.40
2022-08-26T01:22:44.608Z,23.02
2022-08-26T01:25:33.328Z,20.83
2022-08-26T01:28:27.047Z,21.80
2022-08-26T01:31:15.226Z,23.50
2022-08-26T01:34:25.861Z,19.95
2022-08-26T01:37:19.501Z,22.85
2022-08-26T01:40:09.639Z,23.33
2022-08-26T01:42:55.704Z,22.40
2022-08-26T01:45:43.162Z,21.60
2022-08-26T01:48:31.842Z,21.98
2022-08-26T01:51:18.754Z,23.55
2022-08-26T01:54:07.399Z,21.75
2022-08-26T01:56:58.883Z,21.35
2022-08-26T01:59:44.381Z,21.90
2022-08-26T02:02:30.033Z,22.88
2022-08-26T02:05:19.803Z,22.08
2022-08-26T02:08:06.082Z,23.08
2022-08-26T02:10:54.086Z,22.90
2022-08-26T02:13:45.545Z,25.45
2022-08-26T02:16:40.073Z,24.48
2022-08-26T02:19:31.852Z,24.48
2022-08-26T02:22:20.859Z,27.27
2022-08-26T02:25:14.457Z,26.92
2022-08-26T02:28:00.683Z,27.30
2022-08-26T02:30:47.422Z,25.38
2022-08-26T02:33:33.185Z,24.35
2022-08-26T02:36:25.004Z,23.42
2022-08-26T02:42:07.998Z,26.25
2022-08-26T02:44:53.399Z,25.35
2022-08-26T02:47:39.288Z,27.40
2022-08-26T02:50:26.554Z,28.15
2022-08-26T02:53:12.851Z,25.90
2022-08-26T02:55:58.672Z,29.77
2022-08-26T02:58:45.709Z,27.20
2022-08-26T03:01:33.752Z,22.60
2022-08-26T03:04:19.549Z,29.17
2022-08-26T03:07:06.659Z,29.35
2022-08-26T03:09:53.018Z,25.95
2022-08-26T03:12:39.805Z,26.05
2022-08-26T03:15:26.369Z,26.35
2022-08-26T03:18:11.606Z,26.85
2022-08-26T03:20:57.162Z,27.27
2022-08-26T03:23:45.362Z,29.52
2022-08-26T03:26:31.302Z,27.35
2022-08-26T03:29:35.892Z,26.88
2022-08-26T03:32:21.811Z,27.75
2022-08-26T03:37:53.614Z,23.67
2022-08-26T03:40:40.272Z,24.00
2022-08-26T03:43:27.134Z,23.15
2022-08-26T03:46:12.926Z,22.67
2022-08-26T03:48:58.929Z,30.13
2022-08-26T03:51:44.316Z,26.98
2022-08-26T03:54:30.197Z,27.08
2022-08-26T03:57:15.602Z,36.35
2022-08-26T04:00:02.429Z,36.08
2022-08-26T04:02:51.203Z,31.75
2022-08-26T04:05:39.094Z,27.85
2022-08-26T04:08:24.835Z,27.48
2022-08-26T04:11:23.477Z,29.70
2022-08-26T04:16:56.888Z,28.88
2022-08-26T04:19:43.035Z,30.55
2022-08-26T04:25:14.814Z,34.90
2022-08-26T04:28:00.531Z,32.33
2022-08-26T04:30:46.562Z,32.22
2022-08-26T04:33:32.447Z,31.52
2022-08-26T04:36:19.939Z,37.38
2022-08-26T04:39:05.664Z,29.50
2022-08-26T04:41:54.839Z,30.42
2022-08-26T04:44:41.129Z,33.70
2022-08-26T04:47:31.711Z,34.88
2022-08-26T04:50:20.205Z,32.95
2022-08-26T04:53:07.488Z,35.25
2022-08-26T04:55:55.226Z,33.85
2022-08-26T04:58:41.243Z,33.95
2022-08-26T05:01:27.584Z,27.40
2022-08-26T05:04:16.116Z,32.05
2022-08-26T05:07:02.839Z,35.03
2022-08-26T05:09:48.622Z,30.65
2022-08-26T05:12:34.435Z,28.90
2022-08-26T05:15:20.805Z,29.10
2022-08-26T05:18:07.778Z,30.20
2022-08-26T05:20:54.896Z,28.45
2022-08-26T05:23:40.237Z,28.45
2022-08-26T05:26:30.001Z,31.30
2022-08-26T05:29:15.901Z,27.70
2022-08-26T05:32:02.010Z,26.25
2022-08-26T05:34:47.999Z,25.48
2022-08-26T05:37:38.525Z,27.40
2022-08-26T05:40:24.254Z,25.67
2022-08-26T05:43:13.528Z,25.52
2022-08-26T05:46:06.502Z,26.80
2022-08-26T05:48:51.791Z,25.17
2022-08-26T05:51:38.930Z,23.42
2022-08-26T05:54:24.393Z,23.10
2022-08-26T05:57:12.040Z,24.52
2022-08-26T05:59:57.440Z,21.88
2022-08-26T06:02:42.696Z,21.67
2022-08-26T06:05:28.350Z,25.23
2022-08-26T06:08:19.183Z,32.42
2022-08-26T06:11:07.549Z,38.30
2022-08-26T06:14:03.958Z,43.35
2022-08-26T06:16:49.607Z,39.00
2022-08-26T06:19:35.536Z,34.30
2022-08-26T06:22:39.404Z,29.13
2022-08-26T06:25:39.696Z,22.63
2022-08-26T06:28:25.946Z,19.58
2022-08-26T06:31:11.552Z,16.23
2022-08-26T06:33:57.752Z,16.25
2022-08-26T06:36:45.011Z,15.10
2022-08-26T06:39:32.046Z,16.98
2022-08-26T06:42:17.922Z,17.52
2022-08-26T06:45:04.330Z,14.95
2022-08-26T06:47:49.920Z,16.75
2022-08-26T06:50:36.921Z,19.58
2022-08-26T06:53:22.434Z,22.00
2022-08-26T06:56:09.602Z,22.38
2022-08-26T06:58:55.166Z,23.42
2022-08-26T07:01:45.944Z,22.65
2022-08-26T07:04:33.577Z,22.65
2022-08-26T07:07:21.977Z,24.42
2022-08-26T07:10:08.704Z,22.38
2022-08-26T07:12:54.056Z,23.15
2022-08-26T07:15:41.840Z,21.65
2022-08-26T07:18:27.555Z,19.83
2022-08-26T07:21:18.317Z,21.25
2022-08-26T07:24:04.356Z,19.73
2022-08-26T07:26:50.084Z,17.42
2022-08-26T07:29:39.556Z,18.38
2022-08-26T07:32:25.165Z,20.05
2022-08-26T07:35:11.036Z,20.15
2022-08-26T07:37:57.596Z,19.17
2022-08-26T07:40:43.264Z,16.95
2022-08-26T07:43:29.400Z,20.02
2022-08-26T07:46:18.662Z,17.88
2022-08-26T07:49:13.115Z,17.92
2022-08-26T07:51:58.636Z,19.65
2022-08-26T07:54:44.816Z,19.25
2022-08-26T07:57:30.877Z,18.63
2022-08-26T08:00:17.262Z,17.20
2022-08-26T08:03:05.684Z,17.88
2022-08-26T08:05:51.119Z,16.00
2022-08-26T08:08:41.353Z,16.00
2022-08-26T08:11:28.818Z,16.90
2022-08-26T08:14:14.113Z,16.08
2022-08-26T08:16:59.684Z,14.60
2022-08-26T08:19:44.975Z,15.82
2022-08-26T08:22:30.120Z,14.77
2022-08-26T08:25:16.314Z,14.15
2022-08-26T08:28:01.807Z,14.48
2022-08-26T08:30:47.381Z,15.35
2022-08-26T08:33:35.046Z,14.77
2022-08-26T08:36:20.620Z,14.38
2022-08-26T08:39:06.364Z,15.13
2022-08-26T08:42:29.392Z,15.73
2022-08-26T08:45:26.177Z,17.27
2022-08-26T08:48:31.322Z,18.85
2022-08-26T08:51:40.774Z,17.65
2022-08-26T08:54:26.990Z,15.32
2022-08-26T08:57:20.173Z,12.88
2022-08-26T09:00:12.221Z,12.77
2022-08-26T09:03:05.670Z,11.98
2022-08-26T09:05:53.174Z,11.63
2022-08-26T09:08:41.170Z,12.63
2022-08-26T09:11:27.080Z,11.20
2022-08-26T09:14:12.780Z,10.40
2022-08-26T09:17:05.100Z,10.55
2022-08-26T09:20:00.377Z,10.57
2022-08-26T09:22:46.318Z,10.55
2022-08-26T09:25:31.848Z,10.50
2022-08-26T09:28:21.043Z,9.90
2022-08-26T09:31:19.434Z,9.18
2022-08-26T09:34:13.298Z,10.65
2022-08-26T09:37:04.709Z,8.48
2022-08-26T09:39:50.432Z,8.13
2022-08-26T09:42:35.954Z,8.98
2022-08-26T09:45:28.199Z,8.27
2022-08-26T09:48:27.410Z,8.88
2022-08-26T09:51:27.313Z,8.98
2022-08-26T09:54:30.241Z,8.07
2022-08-26T09:57:41.838Z,7.93
2022-08-26T10:01:01.431Z,7.32
2022-08-26T10:03:47.352Z,5.85
2022-08-26T10:06:40.495Z,6.53
2022-08-26T10:09:28.723Z,6.20
2022-08-26T10:12:21.218Z,6.40
2022-08-26T10:15:12.006Z,6.45
2022-08-26T10:18:09.945Z,5.93
2022-08-26T10:20:58.840Z,6.38
2022-08-26T10:23:50.131Z,6.53
2022-08-26T10:26:44.610Z,6.57
2022-08-26T10:29:43.499Z,5.68
2022-08-26T10:33:07.682Z,6.03
2022-08-26T10:36:01.379Z,5.70
2022-08-26T10:38:46.829Z,5.70
2022-08-26T10:41:37.598Z,5.40
2022-08-26T10:44:25.505Z,5.20
2022-08-26T10:47:24.552Z,5.75
2022-08-26T10:50:11.258Z,6.78
2022-08-26T10:53:04.157Z,5.85
2022-08-26T10:56:05.813Z,6.45
2022-08-26T10:59:01.267Z,5.80
2022-08-26T11:02:11.183Z,5.63
2022-08-26T11:04:57.233Z,5.28
2022-08-26T11:07:46.844Z,5.28
2022-08-26T11:10:59.936Z,5.15
2022-08-26T11:14:12.073Z,5.35
2022-08-26T11:16:59.834Z,5.28
2022-08-26T11:20:01.998Z,4.88
2022-08-26T11:22:49.942Z,5.15
2022-08-26T11:25:59.728Z,5.13
2022-08-26T11:28:50.475Z,5.22
2022-08-26T11:31:38.628Z,5.55
2022-08-26T11:34:56.307Z,4.95
2022-08-26T11:37:48.526Z,5.35
2022-08-26T11:40:38.487Z,5.00
2022-08-26T11:43:29.787Z,4.90
2022-08-26T11:46:25.006Z,4.25
2022-08-26T11:49:12.966Z,5.07
2022-08-26T11:52:20.889Z,5.07
2022-08-26T11:55:15.136Z,4.93
2022-08-26T11:58:04.893Z,4.65
2022-08-26T12:00:56.174Z,4.43
2022-08-26T12:03:47.048Z,4.68
2022-08-26T12:06:43.313Z,4.95
2022-08-26T12:09:36.944Z,5.22
2022-08-26T12:12:26.426Z,4.72
2022-08-26T12:15:22.193Z,4.88
2022-08-26T12:18:29.407Z,4.25
2022-08-26T12:21:22.752Z,3.90
2022-08-26T12:24:09.946Z,3.80
2022-08-26T12:27:09.361Z,3.38
2022-08-26T12:30:17.939Z,3.22
2022-08-26T12:33:22.186Z,3.55
2022-08-26T12:36:08.803Z,3.85
2022-08-26T12:38:58.130Z,3.90
2022-08-26T12:41:56.738Z,3.85
2022-08-26T12:44:59.619Z,3.17
2022-08-26T12:47:46.196Z,3.47
2022-08-26T12:50:35.815Z,3.58
2022-08-26T12:53:24.627Z,3.53
2022-08-26T12:56:31.133Z,3.83
2022-08-26T12:59:25.123Z,4.35
2022-08-26T13:02:10.842Z,3.75
2022-08-26T13:05:00.867Z,2.95
2022-08-26T13:08:10.736Z,3.35
2022-08-26T13:11:18.614Z,3.20
2022-08-26T13:14:15.888Z,3.33
2022-08-26T13:17:09.469Z,3.42
2022-08-26T13:19:57.162Z,3.22
2022-08-26T13:22:45.895Z,3.63
2022-08-26T13:25:45.043Z,3.17
2022-08-26T13:28:30.717Z,2.90
2022-08-26T13:31:16.674Z,3.58
2022-08-26T13:34:04.038Z,3.60
2022-08-26T13:36:54.831Z,3.50
2022-08-26T13:39:41.932Z,4.15
2022-08-26T13:42:27.711Z,3.55
2022-08-26T13:45:13.137Z,3.60
2022-08-26T13:47:59.745Z,4.10
2022-08-26T13:50:46.947Z,4.10
2022-08-26T13:53:32.735Z,3.83
2022-08-26T13:56:19.801Z,4.55
2022-08-26T13:59:05.779Z,4.65
2022-08-26T14:01:52.116Z,4.30
2022-08-26T14:04:38.290Z,4.30
2022-08-26T14:07:24.358Z,4.53
2022-08-26T14:10:10.055Z,4.40
2022-08-26T14:12:56.554Z,4.43
2022-08-26T14:15:42.244Z,5.00
2022-08-26T14:18:33.362Z,4.35
2022-08-26T14:21:18.978Z,4.10
2022-08-26T14:24:05.663Z,4.07
2022-08-26T14:26:51.389Z,4.05
2022-08-26T14:29:36.954Z,4.05
2022-08-26T14:32:27.483Z,4.03
2022-08-26T14:35:17.427Z,3.72
2022-08-26T14:38:02.939Z,3.55
2022-08-26T14:40:48.570Z,3.13
2022-08-26T14:43:34.372Z,3.67
2022-08-26T14:46:20.462Z,3.78
2022-08-26T14:49:09.829Z,3.30
2022-08-26T14:51:56.471Z,3.67
2022-08-26T14:54:42.136Z,3.53
2022-08-26T14:57:27.706Z,3.33
2022-08-26T15:00:13.706Z,3.80
2022-08-26T15:02:59.506Z,3.60
2022-08-26T15:05:48.079Z,4.68
2022-08-26T15:08:36.614Z,4.07
2022-08-26T15:11:22.469Z,3.72
2022-08-26T15:14:19.254Z,3.92
2022-08-26T15:17:05.397Z,4.15
2022-08-26T15:19:51.179Z,3.80
2022-08-26T15:22:38.284Z,4.03
2022-08-26T15:25:23.926Z,4.20
2022-08-26T15:28:10.003Z,3.70
2022-08-26T15:30:55.640Z,4.95
2022-08-26T15:33:41.104Z,4.07
2022-08-26T15:36:28.986Z,4.35
2022-08-26T15:39:15.997Z,4.15
2022-08-26T15:42:02.123Z,4.15
2022-08-26T15:44:47.989Z,3.22
2022-08-26T15:47:38.125Z,4.40
2022-08-26T15:50:51.468Z,3.40
2022-08-26T15:53:37.178Z,3.55
2022-08-26T15:56:32.740Z,3.65
2022-08-26T15:59:21.554Z,3.50
2022-08-26T16:02:07.716Z,3.67
2022-08-26T16:04:53.240Z,3.55
2022-08-26T16:07:40.527Z,3.50
2022-08-26T16:10:26.034Z,3.40
2022-08-26T16:13:14.733Z,3.83
2022-08-26T16:16:01.668Z,3.75
2022-08-26T16:18:49.744Z,3.88
2022-08-26T16:21:36.094Z,3.78
2022-08-26T16:24:27.130Z,3.63
2022-08-26T16:27:14.096Z,4.32
2022-08-26T16:29:59.627Z,4.10
2022-08-26T16:32:46.171Z,4.07
2022-08-26T16:35:31.374Z,3.88
2022-08-26T16:38:17.240Z,4.72
2022-08-26T16:41:02.999Z,4.82
2022-08-26T16:43:48.826Z,5.00
2022-08-26T16:46:35.307Z,5.15
2022-08-26T16:49:20.842Z,5.28
2022-08-26T16:52:07.230Z,5.20
2022-08-26T16:54:53.143Z,5.53
2022-08-26T16:57:44.461Z,6.45
2022-08-26T17:00:33.064Z,5.80
2022-08-26T17:03:18.510Z,6.47
2022-08-26T17:06:04.091Z,5.75
2022-08-26T17:08:49.762Z,6.60
2022-08-26T17:11:35.605Z,6.47
2022-08-26T17:14:21.219Z,6.93
2022-08-26T17:17:07.173Z,7.22
2022-08-26T17:19:52.812Z,7.32
2022-08-26T17:22:40.742Z,7.28
2022-08-26T17:25:30.022Z,7.93
2022-08-26T17:28:15.800Z,7.97
2022-08-26T17:31:01.425Z,7.82
2022-08-26T17:33:53.217Z,8.00
2022-08-26T17:36:39.475Z,8.70
2022-08-26T17:39:25.226Z,8.82
2022-08-26T17:42:11.911Z,8.55
2022-08-26T17:44:57.224Z,8.32
2022-08-26T17:47:42.712Z,9.07
2022-08-26T17:50:28.028Z,8.73
2022-08-26T17:53:19.108Z,8.90
2022-08-26T17:56:09.924Z,9.02
2022-08-26T17:58:57.890Z,8.85
2022-08-26T18:01:48.325Z,8.63
2022-08-26T18:04:33.755Z,10.07
2022-08-26T18:07:19.740Z,9.68
2022-08-26T18:10:07.422Z,9.35
2022-08-26T18:12:55.709Z,9.10
2022-08-26T18:15:42.685Z,9.55
2022-08-26T18:18:28.224Z,10.68
2022-08-26T18:21:19.325Z,9.80
2022-08-26T18:24:05.213Z,10.82
2022-08-26T18:26:51.079Z,10.38
2022-08-26T18:29:36.530Z,10.50
2022-08-26T18:32:30.953Z,10.02
2022-08-26T18:35:17.048Z,10.70
2022-08-26T18:38:11.269Z,11.00
2022-08-26T18:40:57.141Z,10.75
2022-08-26T18:43:43.239Z,11.52
2022-08-26T18:46:28.629Z,11.13
2022-08-26T18:49:15.860Z,11.20
2022-08-26T18:52:01.234Z,12.07
2022-08-26T18:54:46.707Z,12.75
2022-08-26T18:57:32.056Z,11.68
2022-08-26T19:00:17.689Z,11.48
2022-08-26T19:03:03.451Z,12.02
2022-08-26T19:05:49.585Z,11.77
2022-08-26T19:08:35.233Z,12.18
2022-08-26T19:11:32.097Z,13.30
2022-08-26T19:14:18.710Z,12.70
2022-08-26T19:17:04.740Z,13.35
2022-08-26T19:19:50.398Z,13.48
2022-08-26T19:22:35.860Z,13.02
2022-08-26T19:25:21.402Z,13.10
2022-08-26T19:30:53.256Z,12.90
2022-08-26T19:33:40.033Z,14.38
2022-08-26T19:36:27.457Z,13.90
2022-08-26T19:39:13.037Z,13.95
2022-08-26T19:41:59.554Z,13.88
2022-08-26T19:45:03.525Z,14.25
2022-08-26T19:47:48.953Z,14.30
2022-08-26T19:53:20.216Z,14.32
2022-08-26T19:56:05.732Z,14.15
2022-08-26T19:58:51.969Z,14.50
2022-08-26T20:01:38.407Z,14.55
2022-08-26T20:04:23.960Z,13.55
2022-08-26T20:07:18.093Z,13.70
2022-08-26T20:10:07.202Z,14.07
2022-08-26T20:12:53.521Z,14.70
2022-08-26T20:15:38.909Z,14.75
2022-08-26T20:21:30.037Z,13.13
2022-08-26T20:24:18.462Z,15.52
2022-08-26T20:27:07.680Z,13.27
2022-08-26T20:29:57.734Z,15.27
2022-08-26T20:32:43.311Z,13.35
2022-08-26T20:35:28.859Z,14.63
2022-08-26T20:38:14.648Z,15.93
2022-08-26T20:41:01.295Z,15.45
2022-08-26T20:43:47.274Z,15.35
2022-08-26T20:46:34.635Z,17.10
2022-08-26T20:49:20.048Z,15.18
2022-08-26T20:52:06.197Z,15.13
2022-08-26T20:54:51.598Z,15.05
2022-08-26T20:57:37.401Z,16.45
2022-08-26T21:00:24.539Z,16.00
2022-08-26T21:03:12.354Z,15.60
2022-08-26T21:08:43.474Z,15.45
2022-08-26T21:11:30.317Z,14.93
2022-08-26T21:14:17.161Z,15.63
2022-08-26T21:17:03.192Z,14.60
2022-08-26T21:19:48.839Z,15.73
2022-08-26T21:25:20.104Z,14.50
2022-08-26T21:28:06.050Z,14.65
2022-08-26T21:30:51.510Z,14.25
2022-08-26T21:33:38.463Z,17.20
2022-08-26T21:36:24.649Z,17.02
2022-08-26T21:39:12.022Z,15.63
2022-08-26T21:41:58.872Z,17.02
2022-08-26T21:44:44.844Z,15.85
2022-08-26T21:47:34.792Z,16.42
2022-08-26T21:50:20.424Z,16.00
2022-08-26T21:53:06.617Z,14.95
2022-08-26T21:55:53.397Z,14.70
2022-08-26T21:58:39.571Z,14.32
2022-08-26T22:01:27.864Z,13.50
2022-08-26T22:04:13.962Z,13.38
2022-08-26T22:06:59.517Z,12.73
2022-08-26T22:09:45.283Z,12.02
2022-08-26T22:12:31.921Z,12.05
2022-08-26T22:15:19.789Z,12.73
2022-08-26T22:18:06.119Z,12.60
2022-08-26T22:20:52.773Z,13.10
2022-08-26T22:23:38.468Z,12.35
2022-08-26T22:26:27.843Z,12.70
2022-08-26T22:29:14.624Z,13.73
2022-08-26T22:32:01.130Z,12.52
2022-08-26T22:34:47.345Z,12.75
2022-08-26T22:37:32.917Z,12.13
2022-08-26T22:43:05.895Z,10.60
2022-08-26T22:45:53.085Z,12.15
2022-08-26T22:48:38.840Z,11.52
2022-08-26T22:51:24.905Z,11.00
2022-08-26T22:54:10.803Z,10.82
2022-08-26T22:56:56.225Z,10.80
2022-08-26T22:59:42.410Z,10.80
2022-08-26T23:02:27.693Z,11.55
2022-08-26T23:05:15.852Z,11.02
2022-08-26T23:08:01.923Z,11.35
2022-08-26T23:10:49.438Z,11.18
2022-08-26T23:13:35.250Z,11.55
2022-08-26T23:16:21.403Z,11.57
2022-08-26T23:19:08.254Z,11.82
2022-08-26T23:21:53.647Z,12.88
2022-08-26T23:27:24.767Z,15.57
2022-08-26T23:30:15.026Z,17.58
2022-08-26T23:33:01.191Z,13.90
2022-08-26T23:35:46.709Z,12.40
2022-08-26T23:41:18.641Z,12.35
2022-08-26T23:44:07.191Z,12.43
2022-08-26T23:46:52.897Z,12.05
2022-08-26T23:49:38.350Z,12.40
2022-08-26T23:52:42.562Z,11.98
2022-08-26T23:55:28.314Z,12.10
2022-08-26T23:58:15.637Z,11.90
